Hildegaard — C6QU3 — position and weather

sailwx.info

Track history (hours):
 
Tides and Currents Weather Stations Pressure Air Temp Water Temp Dewpoint Dewpoint Depression Visibility Wind Speed Wind Dir Waves Ship Positions

Hildegaard

Last reported at 2017-Jan-16 15:07 UTC. Time now 2017-Jan-17 13:03 UTC.
Position N 58°29' W 002°43'.

Length 248 m; draft 12.5 m.

Type: Ship (hazmat cat A). MMSI: 308574000.

Date/timePositionNaut miles runAvg speedWind from/ knotsBaromVisibWave heightAir tempDewpointWater temp
2017-Jan-16 15:07N 58°29' W 002°43'812.4
2017-Jan-16 14:31N 58°35' W 002°52'1313.1
2017-Jan-16 13:33N 58°44' W 003°07'7 7.3
2017-Jan-16 12:33N 58°52' W 003°05'1 1.1
2017-Jan-16 11:32N 58°51' W 003°07'0 0.0
2017-Jan-16 10:32N 58°51' W 003°07'0 0.0
2017-Jan-16 09:32N 58°51' W 003°07'0 0.0
2017-Jan-16 08:32N 58°51' W 003°07'0 0.0
2017-Jan-16 07:32N 58°51' W 003°07'0 0.0
2017-Jan-16 06:32N 58°51' W 003°07'0 0.0
2017-Jan-16 05:32N 58°51' W 003°07'0 0.0
2017-Jan-16 04:32N 58°51' W 003°07'0 0.0
2017-Jan-16 03:32N 58°51' W 003°07'0 0.0
2017-Jan-16 02:32N 58°51' W 003°07'0 0.0
2017-Jan-16 01:32N 58°51' W 003°07'0 0.0
2017-Jan-16 00:32N 58°51' W 003°07'0 0.0
2017-Jan-15 23:32N 58°51' W 003°07'0 0.0
2017-Jan-15 22:32N 58°51' W 003°07'0 0.0
2017-Jan-15 21:32N 58°51' W 003°07'0 0.0
2017-Jan-15 20:32N 58°51' W 003°07'0 0.0
2017-Jan-15 19:32N 58°51' W 003°07'0 0.0
2017-Jan-15 18:32N 58°51' W 003°07'0 0.0
2017-Jan-15 17:32N 58°51' W 003°07'0 0.0
2017-Jan-15 16:32N 58°51' W 003°07'0 0.0
2017-Jan-15 15:32N 58°51' W 003°07'0 0.0
2017-Jan-15 14:32N 58°51' W 003°07'0 0.0
2017-Jan-15 13:32N 58°51' W 003°07'0 0.0
2017-Jan-15 12:32N 58°51' W 003°07'0 0.0
2017-Jan-15 11:32N 58°51' W 003°07'0 0.0
2017-Jan-15 10:32N 58°51' W 003°07'0 0.0
2017-Jan-15 09:32N 58°51' W 003°07'0 0.0
2017-Jan-15 08:32N 58°51' W 003°07'0 0.5
2017-Jan-15 07:33N 58°51' W 003°06'2 1.4
2017-Jan-15 06:29N 58°52' W 003°05'0 0.1
2017-Jan-15 05:32N 58°52' W 003°05'0 0.0
2017-Jan-15 04:32N 58°52' W 003°05'0 0.0
2017-Jan-15 03:32N 58°52' W 003°05'0 0.0
2017-Jan-15 02:32N 58°52' W 003°05'0 0.0
2017-Jan-15 01:32N 58°52' W 003°05'0 0.0
2017-Jan-15 00:32N 58°52' W 003°05'0 0.0
2017-Jan-14 23:32N 58°52' W 003°05'0 0.0
2017-Jan-14 22:32N 58°52' W 003°05'0 0.0
2017-Jan-14 21:32N 58°52' W 003°05'0 0.1
2017-Jan-14 20:32N 58°52' W 003°04'5 4.8
2017-Jan-14 19:33N 58°48' W 003°04'8 8.3
2017-Jan-14 18:33N 58°40' W 002°58'1010.3
2017-Jan-14 17:33N 58°32' W 002°46'70 7.7
2017-Jan-14 08:32N 57°34' W 001°32'6 5.7
2017-Jan-14 07:33N 57°28' W 001°30'171 5.3
2017-Jan-12 23:21N 54°42' W 000°15'5 6.0
2017-Jan-12 22:33N 54°38' W 000°13'6 6.4
2017-Jan-12 21:33N 54°31' W 000°10'5 4.9
2017-Jan-12 20:33N 54°27' W 000°08'5 5.0
2017-Jan-12 19:33N 54°22' W 000°06'5 5.0
2017-Jan-12 18:33N 54°17' W 000°04'6 6.2
2017-Jan-12 17:33N 54°11' W 000°02'5 5.2
2017-Jan-12 16:33N 54°06' E 000°00'0 0.4
2017-Jan-12 15:33N 54°05' E 000°00'0 0.0
2017-Jan-12 14:33N 54°05' E 000°01'0 0.1
2017-Jan-12 13:33N 54°05' E 000°01'0 0.1
2017-Jan-12 12:33N 54°06' E 000°01'0 0.1
2017-Jan-12 11:33N 54°06' E 000°01'0 0.1
2017-Jan-12 10:33N 54°06' E 000°01'0 0.0
2017-Jan-12 09:33N 54°06' E 000°00'0 0.0
2017-Jan-12 08:33N 54°06' E 000°00'0 0.0
2017-Jan-12 07:33N 54°06' E 000°01'0 0.1
2017-Jan-12 06:33N 54°06' E 000°01'0 0.1
2017-Jan-12 05:32N 54°06' E 000°01'0 0.1
2017-Jan-12 04:32N 54°05' E 000°01'0 0.0
2017-Jan-12 03:32N 54°05' E 000°01'0 0.0
2017-Jan-12 02:32N 54°05' E 000°00'0 0.0
2017-Jan-12 01:32N 54°05' E 000°01'0 0.0
2017-Jan-12 00:32N 54°05' E 000°01'0 0.1
2017-Jan-11 23:32N 54°05' E 000°01'0 0.1
2017-Jan-11 22:31N 54°06' E 000°01'0 0.1
2017-Jan-11 21:31N 54°06' E 000°01'0 0.0
2017-Jan-11 20:31N 54°06' E 000°01'0 0.0
2017-Jan-11 19:28N 54°06' E 000°01'0 0.1
2017-Jan-11 18:33N 54°06' E 000°01'0 0.0
2017-Jan-11 17:33N 54°06' E 000°01'0 0.1
2017-Jan-11 16:33N 54°05' E 000°01'0 0.0
2017-Jan-11 15:33N 54°05' E 000°01'0 0.0
2017-Jan-11 14:33N 54°05' E 000°01'0 0.0
2017-Jan-11 13:33N 54°05' E 000°01'0 0.0
2017-Jan-11 12:33N 54°05' E 000°01'0 0.0
2017-Jan-11 11:33N 54°05' E 000°01'0 0.1
2017-Jan-11 10:33N 54°06' E 000°01'0 0.1
2017-Jan-11 09:33N 54°06' E 000°01'0 0.1
2017-Jan-11 08:33N 54°06' E 000°01'0 0.0
2017-Jan-11 07:27N 54°06' E 000°01'0 0.0
2017-Jan-11 06:33N 54°06' E 000°01'0 0.0
2017-Jan-11 05:33N 54°06' E 000°01'0 0.1
2017-Jan-11 04:33N 54°06' E 000°01'0 0.0
2017-Jan-11 03:33N 54°06' E 000°01'0 0.2
2017-Jan-11 02:33N 54°06' E 000°00'0 0.0
2017-Jan-11 01:33N 54°06' E 000°00'0 0.1
2017-Jan-11 00:33N 54°06' E 000°00'0 0.1
2017-Jan-10 23:33N 54°06' E 000°00'0 0.0
2017-Jan-10 22:33N 54°06' E 000°00'0 0.1
2017-Jan-10 21:30N 54°06' E 000°00'0 0.0
2017-Jan-10 20:33N 54°06' E 000°00'0 0.0
2017-Jan-10 19:33N 54°06' E 000°00'0 0.0
2017-Jan-10 18:33N 54°06' E 000°00'0 0.1
2017-Jan-10 17:33N 54°06' E 000°01'0 0.1
2017-Jan-10 16:33N 54°06' E 000°01'0 0.1
2017-Jan-10 15:33N 54°06' E 000°00'0 0.1
2017-Jan-10 14:33N 54°06' E 000°00'0 0.0
2017-Jan-10 13:33N 54°06' E 000°00'0 0.0
2017-Jan-10 12:33N 54°06' E 000°00'0 0.1
2017-Jan-10 11:33N 54°06' E 000°00'0 0.0
2017-Jan-10 10:33N 54°06' E 000°01'0 0.1
2017-Jan-10 09:33N 54°06' E 000°00'0 0.1
2017-Jan-10 08:33N 54°06' E 000°00'0 0.0
2017-Jan-10 07:33N 54°06' E 000°00'0 0.0
2017-Jan-10 06:33N 54°06' E 000°00'0 0.0
2017-Jan-10 05:33N 54°06' E 000°00'0 0.1
2017-Jan-10 04:33N 54°06' E 000°00'0 0.1
2017-Jan-10 03:33N 54°06' E 000°01'0 0.0
2017-Jan-10 02:33N 54°06' E 000°00'0 0.0
2017-Jan-10 01:33N 54°06' E 000°00'0 0.0
2017-Jan-10 00:33N 54°06' E 000°00'0 0.0
2017-Jan-09 23:33N 54°06' E 000°01'0 0.1
2017-Jan-09 22:33N 54°06' E 000°01'0 0.1
2017-Jan-09 21:30N 54°06' E 000°00'0 0.0
2017-Jan-09 20:33N 54°06' E 000°00'0 0.0
2017-Jan-09 19:33N 54°06' E 000°00'0 0.0
2017-Jan-09 18:33N 54°06' E 000°00'0 0.0
2017-Jan-09 17:33N 54°06' E 000°00'0 0.0
2017-Jan-09 16:30N 54°06' E 000°00'0 0.1
2017-Jan-09 15:33N 54°06' E 000°00'0 0.0
2017-Jan-09 14:33N 54°06' E 000°00'0 0.0
2017-Jan-09 13:33N 54°06' E 000°00'0 0.0
2017-Jan-09 12:33N 54°06' E 000°00'0 0.1
2017-Jan-09 11:33N 54°06' E 000°00'0 0.1
2017-Jan-09 10:33N 54°06' E 000°00'0 0.0
2017-Jan-09 09:30N 54°06' E 000°00'0 0.0
2017-Jan-09 08:33N 54°06' E 000°00'0 0.0
2017-Jan-09 07:33N 54°06' E 000°00'0 0.0
2017-Jan-09 06:30N 54°06' E 000°00'0 0.0
2017-Jan-09 05:33N 54°06' E 000°00'0 0.0
2017-Jan-09 04:33N 54°06' E 000°00'0 0.0
2017-Jan-09 03:30N 54°06' E 000°00'0 0.1
2017-Jan-09 02:33N 54°06' E 000°00'0 0.2
2017-Jan-09 01:33N 54°06' E 000°00'0 0.1
2017-Jan-09 00:33N 54°06' E 000°00'0 0.0
2017-Jan-08 23:33N 54°06' E 000°00'0 0.1
2017-Jan-08 22:33N 54°06' E 000°00'0 0.1
2017-Jan-08 21:33N 54°06' E 000°00'0 0.1
2017-Jan-08 20:33N 54°06' E 000°00'0 0.0
2017-Jan-08 19:33N 54°06' E 000°00'0 0.0
2017-Jan-08 18:33N 54°06' E 000°00'0 0.0
2017-Jan-08 17:27N 54°06' E 000°00'0 0.0
2017-Jan-08 16:33N 54°06' E 000°00'0 0.1
2017-Jan-08 15:33N 54°06' E 000°00'0 0.2
2017-Jan-08 14:33N 54°06' E 000°00'0 0.1
2017-Jan-08 13:30N 54°06' E 000°00'0 0.0
2017-Jan-08 12:33N 54°06' E 000°00'0 0.0
2017-Jan-08 11:33N 54°06' E 000°00'0 0.0
2017-Jan-08 10:33N 54°06' E 000°00'0 0.1
2017-Jan-08 09:33N 54°06' E 000°00'0 0.0
2017-Jan-08 08:33N 54°06' E 000°00'0 0.2
2017-Jan-08 07:33N 54°06' E 000°00'0 0.0
2017-Jan-08 06:33N 54°06' E 000°00'0 0.0
2017-Jan-08 05:33N 54°06' E 000°00'0 0.0
2017-Jan-08 04:33N 54°06' E 000°00'0 0.0
2017-Jan-08 03:30N 54°06' E 000°00'0 0.1
2017-Jan-08 02:33N 54°06' E 000°00'0 0.1
2017-Jan-08 01:33N 54°06' E 000°00'0 0.1
2017-Jan-08 00:33N 54°06' E 000°00'0 0.0
2017-Jan-07 23:33N 54°06' E 000°00'0 0.0
2017-Jan-07 22:33N 54°06' E 000°00'0 0.0
2017-Jan-07 21:33N 54°06' E 000°00'0 0.0
2017-Jan-07 20:33N 54°06' E 000°00'0 0.2
2017-Jan-07 19:33N 54°06' E 000°00'0 0.1
2017-Jan-07 18:33N 54°06' E 000°00'0 0.0
2017-Jan-07 17:33N 54°06' E 000°00'0 0.0
2017-Jan-07 16:33N 54°06' E 000°00'0 0.1
2017-Jan-07 15:33N 54°06' E 000°00'0 0.2
2017-Jan-07 14:33N 54°06' E 000°00'0 0.0
2017-Jan-07 13:33N 54°06' E 000°00'0 0.0
2017-Jan-07 12:33N 54°06' E 000°00'0 0.0
2017-Jan-07 11:33N 54°06' E 000°00'0 0.0
2017-Jan-07 10:33N 54°06' E 000°00'0 0.0
2017-Jan-07 09:33N 54°06' E 000°00'0 0.0
2017-Jan-07 08:33N 54°06' E 000°00'0 0.0
2017-Jan-07 07:33N 54°06' E 000°00'0 0.2
2017-Jan-07 06:27N 54°06' E 000°00'0 0.1
2017-Jan-07 05:33N 54°06' E 000°00'0 0.0
2017-Jan-07 04:33N 54°06' E 000°00'0 0.0
2017-Jan-07 03:33N 54°06' E 000°00'0 0.0
2017-Jan-07 02:30N 54°06' E 000°00'0 0.1
2017-Jan-07 01:30N 54°06' E 000°00'0 0.1
2017-Jan-07 00:33N 54°06' E 000°00'0 0.1
2017-Jan-06 23:33N 54°06' E 000°00'0 0.1
2017-Jan-06 22:33N 54°06' E 000°00'0 0.0
2017-Jan-06 21:33N 54°06' E 000°00'0 0.0
2017-Jan-06 20:33N 54°06' E 000°00'0 0.1
2017-Jan-06 19:33N 54°06' E 000°00'0 0.1
2017-Jan-06 18:33N 54°06' E 000°00'0 0.0
2017-Jan-06 17:33N 54°06' E 000°00'0 0.0
2017-Jan-06 16:30N 54°06' E 000°00'0 0.0
2017-Jan-06 15:33N 54°06' E 000°00'  
Track history (hours):
 
Tides and Currents Weather Stations Pressure Air Temp Water Temp Dewpoint Dewpoint Depression Visibility Wind Speed Wind Dir Waves Ship Positions

Hildegaard

Last reported at 2017-Jan-16 15:07 UTC. Time now 2017-Jan-17 13:03 UTC.
Position N 58°29' W 002°43'.

Length 248 m; draft 12.5 m.

Type: Ship (hazmat cat A). MMSI: 308574000.

Date/timePositionNaut miles runAvg speedWind from/ knotsBaromVisibWave heightAir tempDewpointWater temp
2017-Jan-16 15:07N 58°29' W 002°43'812.4
2017-Jan-16 14:31N 58°35' W 002°52'1313.1
2017-Jan-16 13:33N 58°44' W 003°07'7 7.3
2017-Jan-16 12:33N 58°52' W 003°05'1 1.1
2017-Jan-16 11:32N 58°51' W 003°07'0 0.0
2017-Jan-16 10:32N 58°51' W 003°07'0 0.0
2017-Jan-16 09:32N 58°51' W 003°07'0 0.0
2017-Jan-16 08:32N 58°51' W 003°07'0 0.0
2017-Jan-16 07:32N 58°51' W 003°07'0 0.0
2017-Jan-16 06:32N 58°51' W 003°07'0 0.0
2017-Jan-16 05:32N 58°51' W 003°07'0 0.0
2017-Jan-16 04:32N 58°51' W 003°07'0 0.0
2017-Jan-16 03:32N 58°51' W 003°07'0 0.0
2017-Jan-16 02:32N 58°51' W 003°07'0 0.0
2017-Jan-16 01:32N 58°51' W 003°07'0 0.0
2017-Jan-16 00:32N 58°51' W 003°07'0 0.0
2017-Jan-15 23:32N 58°51' W 003°07'0 0.0
2017-Jan-15 22:32N 58°51' W 003°07'0 0.0
2017-Jan-15 21:32N 58°51' W 003°07'0 0.0
2017-Jan-15 20:32N 58°51' W 003°07'0 0.0
2017-Jan-15 19:32N 58°51' W 003°07'0 0.0
2017-Jan-15 18:32N 58°51' W 003°07'0 0.0
2017-Jan-15 17:32N 58°51' W 003°07'0 0.0
2017-Jan-15 16:32N 58°51' W 003°07'0 0.0
2017-Jan-15 15:32N 58°51' W 003°07'0 0.0
2017-Jan-15 14:32N 58°51' W 003°07'0 0.0
2017-Jan-15 13:32N 58°51' W 003°07'0 0.0
2017-Jan-15 12:32N 58°51' W 003°07'0 0.0
2017-Jan-15 11:32N 58°51' W 003°07'0 0.0
2017-Jan-15 10:32N 58°51' W 003°07'0 0.0
2017-Jan-15 09:32N 58°51' W 003°07'0 0.0
2017-Jan-15 08:32N 58°51' W 003°07'0 0.5
2017-Jan-15 07:33N 58°51' W 003°06'2 1.4
2017-Jan-15 06:29N 58°52' W 003°05'0 0.1
2017-Jan-15 05:32N 58°52' W 003°05'0 0.0
2017-Jan-15 04:32N 58°52' W 003°05'0 0.0
2017-Jan-15 03:32N 58°52' W 003°05'0 0.0
2017-Jan-15 02:32N 58°52' W 003°05'0 0.0
2017-Jan-15 01:32N 58°52' W 003°05'0 0.0
2017-Jan-15 00:32N 58°52' W 003°05'0 0.0
2017-Jan-14 23:32N 58°52' W 003°05'0 0.0
2017-Jan-14 22:32N 58°52' W 003°05'0 0.0
2017-Jan-14 21:32N 58°52' W 003°05'0 0.1
2017-Jan-14 20:32N 58°52' W 003°04'5 4.8
2017-Jan-14 19:33N 58°48' W 003°04'8 8.3
2017-Jan-14 18:33N 58°40' W 002°58'1010.3
2017-Jan-14 17:33N 58°32' W 002°46'70 7.7
2017-Jan-14 08:32N 57°34' W 001°32'6 5.7
2017-Jan-14 07:33N 57°28' W 001°30'171 5.3
2017-Jan-12 23:21N 54°42' W 000°15'5 6.0
2017-Jan-12 22:33N 54°38' W 000°13'6 6.4
2017-Jan-12 21:33N 54°31' W 000°10'5 4.9
2017-Jan-12 20:33N 54°27' W 000°08'5 5.0
2017-Jan-12 19:33N 54°22' W 000°06'5 5.0
2017-Jan-12 18:33N 54°17' W 000°04'6 6.2
2017-Jan-12 17:33N 54°11' W 000°02'5 5.2
2017-Jan-12 16:33N 54°06' E 000°00'0 0.4
2017-Jan-12 15:33N 54°05' E 000°00'0 0.0
2017-Jan-12 14:33N 54°05' E 000°01'0 0.1
2017-Jan-12 13:33N 54°05' E 000°01'0 0.1
2017-Jan-12 12:33N 54°06' E 000°01'0 0.1
2017-Jan-12 11:33N 54°06' E 000°01'0 0.1
2017-Jan-12 10:33N 54°06' E 000°01'0 0.0
2017-Jan-12 09:33N 54°06' E 000°00'0 0.0
2017-Jan-12 08:33N 54°06' E 000°00'0 0.0
2017-Jan-12 07:33N 54°06' E 000°01'0 0.1
2017-Jan-12 06:33N 54°06' E 000°01'0 0.1
2017-Jan-12 05:32N 54°06' E 000°01'0 0.1
2017-Jan-12 04:32N 54°05' E 000°01'0 0.0
2017-Jan-12 03:32N 54°05' E 000°01'0 0.0
2017-Jan-12 02:32N 54°05' E 000°00'0 0.0
2017-Jan-12 01:32N 54°05' E 000°01'0 0.0
2017-Jan-12 00:32N 54°05' E 000°01'0 0.1
2017-Jan-11 23:32N 54°05' E 000°01'0 0.1
2017-Jan-11 22:31N 54°06' E 000°01'0 0.1
2017-Jan-11 21:31N 54°06' E 000°01'0 0.0
2017-Jan-11 20:31N 54°06' E 000°01'0 0.0
2017-Jan-11 19:28N 54°06' E 000°01'0 0.1
2017-Jan-11 18:33N 54°06' E 000°01'0 0.0
2017-Jan-11 17:33N 54°06' E 000°01'0 0.1
2017-Jan-11 16:33N 54°05' E 000°01'0 0.0
2017-Jan-11 15:33N 54°05' E 000°01'0 0.0
2017-Jan-11 14:33N 54°05' E 000°01'0 0.0
2017-Jan-11 13:33N 54°05' E 000°01'0 0.0
2017-Jan-11 12:33N 54°05' E 000°01'0 0.0
2017-Jan-11 11:33N 54°05' E 000°01'0 0.1
2017-Jan-11 10:33N 54°06' E 000°01'0 0.1
2017-Jan-11 09:33N 54°06' E 000°01'0 0.1
2017-Jan-11 08:33N 54°06' E 000°01'0 0.0
2017-Jan-11 07:27N 54°06' E 000°01'0 0.0
2017-Jan-11 06:33N 54°06' E 000°01'0 0.0
2017-Jan-11 05:33N 54°06' E 000°01'0 0.1
2017-Jan-11 04:33N 54°06' E 000°01'0 0.0
2017-Jan-11 03:33N 54°06' E 000°01'0 0.2
2017-Jan-11 02:33N 54°06' E 000°00'0 0.0
2017-Jan-11 01:33N 54°06' E 000°00'0 0.1
2017-Jan-11 00:33N 54°06' E 000°00'0 0.1
2017-Jan-10 23:33N 54°06' E 000°00'0 0.0
2017-Jan-10 22:33N 54°06' E 000°00'0 0.1
2017-Jan-10 21:30N 54°06' E 000°00'0 0.0
2017-Jan-10 20:33N 54°06' E 000°00'0 0.0
2017-Jan-10 19:33N 54°06' E 000°00'0 0.0
2017-Jan-10 18:33N 54°06' E 000°00'0 0.1
2017-Jan-10 17:33N 54°06' E 000°01'0 0.1
2017-Jan-10 16:33N 54°06' E 000°01'0 0.1
2017-Jan-10 15:33N 54°06' E 000°00'0 0.1
2017-Jan-10 14:33N 54°06' E 000°00'0 0.0
2017-Jan-10 13:33N 54°06' E 000°00'0 0.0
2017-Jan-10 12:33N 54°06' E 000°00'0 0.1
2017-Jan-10 11:33N 54°06' E 000°00'0 0.0
2017-Jan-10 10:33N 54°06' E 000°01'0 0.1
2017-Jan-10 09:33N 54°06' E 000°00'0 0.1
2017-Jan-10 08:33N 54°06' E 000°00'0 0.0
2017-Jan-10 07:33N 54°06' E 000°00'0 0.0
2017-Jan-10 06:33N 54°06' E 000°00'0 0.0
2017-Jan-10 05:33N 54°06' E 000°00'0 0.1
2017-Jan-10 04:33N 54°06' E 000°00'0 0.1
2017-Jan-10 03:33N 54°06' E 000°01'0 0.0
2017-Jan-10 02:33N 54°06' E 000°00'0 0.0
2017-Jan-10 01:33N 54°06' E 000°00'0 0.0
2017-Jan-10 00:33N 54°06' E 000°00'0 0.0
2017-Jan-09 23:33N 54°06' E 000°01'0 0.1
2017-Jan-09 22:33N 54°06' E 000°01'0 0.1
2017-Jan-09 21:30N 54°06' E 000°00'0 0.0
2017-Jan-09 20:33N 54°06' E 000°00'0 0.0
2017-Jan-09 19:33N 54°06' E 000°00'0 0.0
2017-Jan-09 18:33N 54°06' E 000°00'0 0.0
2017-Jan-09 17:33N 54°06' E 000°00'0 0.0
2017-Jan-09 16:30N 54°06' E 000°00'0 0.1
2017-Jan-09 15:33N 54°06' E 000°00'0 0.0
2017-Jan-09 14:33N 54°06' E 000°00'0 0.0
2017-Jan-09 13:33N 54°06' E 000°00'0 0.0
2017-Jan-09 12:33N 54°06' E 000°00'0 0.1
2017-Jan-09 11:33N 54°06' E 000°00'0 0.1
2017-Jan-09 10:33N 54°06' E 000°00'0 0.0
2017-Jan-09 09:30N 54°06' E 000°00'0 0.0
2017-Jan-09 08:33N 54°06' E 000°00'0 0.0
2017-Jan-09 07:33N 54°06' E 000°00'0 0.0
2017-Jan-09 06:30N 54°06' E 000°00'0 0.0
2017-Jan-09 05:33N 54°06' E 000°00'0 0.0
2017-Jan-09 04:33N 54°06' E 000°00'0 0.0
2017-Jan-09 03:30N 54°06' E 000°00'0 0.1
2017-Jan-09 02:33N 54°06' E 000°00'0 0.2
2017-Jan-09 01:33N 54°06' E 000°00'0 0.1
2017-Jan-09 00:33N 54°06' E 000°00'0 0.0
2017-Jan-08 23:33N 54°06' E 000°00'0 0.1
2017-Jan-08 22:33N 54°06' E 000°00'0 0.1
2017-Jan-08 21:33N 54°06' E 000°00'0 0.1
2017-Jan-08 20:33N 54°06' E 000°00'0 0.0
2017-Jan-08 19:33N 54°06' E 000°00'0 0.0
2017-Jan-08 18:33N 54°06' E 000°00'0 0.0
2017-Jan-08 17:27N 54°06' E 000°00'0 0.0
2017-Jan-08 16:33N 54°06' E 000°00'0 0.1
2017-Jan-08 15:33N 54°06' E 000°00'0 0.2
2017-Jan-08 14:33N 54°06' E 000°00'0 0.1
2017-Jan-08 13:30N 54°06' E 000°00'0 0.0
2017-Jan-08 12:33N 54°06' E 000°00'0 0.0
2017-Jan-08 11:33N 54°06' E 000°00'0 0.0
2017-Jan-08 10:33N 54°06' E 000°00'0 0.1
2017-Jan-08 09:33N 54°06' E 000°00'0 0.0
2017-Jan-08 08:33N 54°06' E 000°00'0 0.2
2017-Jan-08 07:33N 54°06' E 000°00'0 0.0
2017-Jan-08 06:33N 54°06' E 000°00'0 0.0
2017-Jan-08 05:33N 54°06' E 000°00'0 0.0
2017-Jan-08 04:33N 54°06' E 000°00'0 0.0
2017-Jan-08 03:30N 54°06' E 000°00'0 0.1
2017-Jan-08 02:33N 54°06' E 000°00'0 0.1
2017-Jan-08 01:33N 54°06' E 000°00'0 0.1
2017-Jan-08 00:33N 54°06' E 000°00'0 0.0
2017-Jan-07 23:33N 54°06' E 000°00'0 0.0
2017-Jan-07 22:33N 54°06' E 000°00'0 0.0
2017-Jan-07 21:33N 54°06' E 000°00'0 0.0
2017-Jan-07 20:33N 54°06' E 000°00'0 0.2
2017-Jan-07 19:33N 54°06' E 000°00'0 0.1
2017-Jan-07 18:33N 54°06' E 000°00'0 0.0
2017-Jan-07 17:33N 54°06' E 000°00'0 0.0
2017-Jan-07 16:33N 54°06' E 000°00'0 0.1
2017-Jan-07 15:33N 54°06' E 000°00'0 0.2
2017-Jan-07 14:33N 54°06' E 000°00'0 0.0
2017-Jan-07 13:33N 54°06' E 000°00'0 0.0
2017-Jan-07 12:33N 54°06' E 000°00'0 0.0
2017-Jan-07 11:33N 54°06' E 000°00'0 0.0
2017-Jan-07 10:33N 54°06' E 000°00'0 0.0
2017-Jan-07 09:33N 54°06' E 000°00'0 0.0
2017-Jan-07 08:33N 54°06' E 000°00'0 0.0
2017-Jan-07 07:33N 54°06' E 000°00'0 0.2
2017-Jan-07 06:27N 54°06' E 000°00'0 0.1
2017-Jan-07 05:33N 54°06' E 000°00'0 0.0
2017-Jan-07 04:33N 54°06' E 000°00'0 0.0
2017-Jan-07 03:33N 54°06' E 000°00'0 0.0
2017-Jan-07 02:30N 54°06' E 000°00'0 0.1
2017-Jan-07 01:30N 54°06' E 000°00'0 0.1
2017-Jan-07 00:33N 54°06' E 000°00'0 0.1
2017-Jan-06 23:33N 54°06' E 000°00'0 0.1
2017-Jan-06 22:33N 54°06' E 000°00'0 0.0
2017-Jan-06 21:33N 54°06' E 000°00'0 0.0
2017-Jan-06 20:33N 54°06' E 000°00'0 0.1
2017-Jan-06 19:33N 54°06' E 000°00'0 0.1
2017-Jan-06 18:33N 54°06' E 000°00'0 0.0
2017-Jan-06 17:33N 54°06' E 000°00'0 0.0
2017-Jan-06 16:30N 54°06' E 000°00'0 0.0
2017-Jan-06 15:33N 54°06' E 000°00'  

Dump ship's entire track history